sensor_id;sensor_type;location;lat;lon;timestamp;P1;durP1;ratioP1;P2;durP2;ratioP2
81006;SDS011;70472;47.592;17.640;2023-08-24T00:00:15;15.07;;;15.07;;
81006;SDS011;70472;47.592;17.640;2023-08-24T00:00:47;14.47;;;14.47;;
81006;SDS011;70472;47.592;17.640;2023-08-24T00:01:20;13.27;;;13.27;;
81006;SDS011;70472;47.592;17.640;2023-08-24T00:01:52;12.63;;;12.63;;
81006;SDS011;70472;47.592;17.640;2023-08-24T00:02:24;11.97;;;11.97;;
81006;SDS011;70472;47.592;17.640;2023-08-24T00:02:57;11.90;;;11.90;;
81006;SDS011;70472;47.592;17.640;2023-08-24T00:03:29;11.90;;;11.90;;
81006;SDS011;70472;47.592;17.640;2023-08-24T00:04:02;12.40;;;12.40;;
81006;SDS011;70472;47.592;17.640;2023-08-24T00:04:35;10.90;;;10.90;;
81006;SDS011;70472;47.592;17.640;2023-08-24T00:05:07;11.27;;;11.27;;
81006;SDS011;70472;47.592;17.640;2023-08-24T00:05:40;12.67;;;12.67;;
81006;SDS011;70472;47.592;17.640;2023-08-24T00:06:12;12.20;;;12.20;;
81006;SDS011;70472;47.592;17.640;2023-08-24T00:06:44;11.57;;;11.57;;
81006;SDS011;70472;47.592;17.640;2023-08-24T00:07:17;11.87;;;11.87;;
81006;SDS011;70472;47.592;17.640;2023-08-24T00:07:49;12.33;;;12.33;;
81006;SDS011;70472;47.592;17.640;2023-08-24T00:08:22;11.00;;;11.00;;
81006;SDS011;70472;47.592;17.640;2023-08-24T00:08:54;10.60;;;10.60;;
81006;SDS011;70472;47.592;17.640;2023-08-24T00:09:27;11.37;;;11.37;;
81006;SDS011;70472;47.592;17.640;2023-08-24T00:09:59;11.63;;;11.63;;
81006;SDS011;70472;47.592;17.640;2023-08-24T00:10:32;11.50;;;11.50;;
81006;SDS011;70472;47.592;17.640;2023-08-24T00:11:04;12.17;;;12.17;;
81006;SDS011;70472;47.592;17.640;2023-08-24T00:11:37;11.90;;;11.90;;
81006;SDS011;70472;47.592;17.640;2023-08-24T00:12:09;11.57;;;11.57;;
81006;SDS011;70472;47.592;17.640;2023-08-24T00:12:41;11.67;;;11.67;;
81006;SDS011;70472;47.592;17.640;2023-08-24T00:13:14;12.20;;;12.20;;
81006;SDS011;70472;47.592;17.640;2023-08-24T00:13:47;12.03;;;12.03;;
81006;SDS011;70472;47.592;17.640;2023-08-24T00:14:20;11.73;;;11.73;;
81006;SDS011;70472;47.592;17.640;2023-08-24T00:14:53;12.67;;;12.67;;
81006;SDS011;70472;47.592;17.640;2023-08-24T00:15:25;13.27;;;13.27;;
81006;SDS011;70472;47.592;17.640;2023-08-24T00:15:58;12.60;;;12.60;;
81006;SDS011;70472;47.592;17.640;2023-08-24T00:16:31;12.87;;;12.87;;
81006;SDS011;70472;47.592;17.640;2023-08-24T00:17:03;12.90;;;12.90;;
81006;SDS011;70472;47.592;17.640;2023-08-24T00:17:36;12.27;;;12.27;;
81006;SDS011;70472;47.592;17.640;2023-08-24T00:18:09;11.70;;;11.70;;
81006;SDS011;70472;47.592;17.640;2023-08-24T00:18:42;12.03;;;12.03;;
81006;SDS011;70472;47.592;17.640;2023-08-24T00:19:14;11.90;;;11.90;;
81006;SDS011;70472;47.592;17.640;2023-08-24T00:19:47;11.37;;;11.37;;
81006;SDS011;70472;47.592;17.640;2023-08-24T00:20:19;11.60;;;11.60;;
81006;SDS011;70472;47.592;17.640;2023-08-24T00:20:52;11.60;;;11.60;;
81006;SDS011;70472;47.592;17.640;2023-08-24T00:21:24;12.37;;;12.37;;
81006;SDS011;70472;47.592;17.640;2023-08-24T00:21:58;12.47;;;12.47;;
81006;SDS011;70472;47.592;17.640;2023-08-24T00:22:31;12.33;;;12.33;;
81006;SDS011;70472;47.592;17.640;2023-08-24T00:23:03;12.70;;;12.70;;
81006;SDS011;70472;47.592;17.640;2023-08-24T00:23:36;13.40;;;13.40;;
81006;SDS011;70472;47.592;17.640;2023-08-24T00:24:08;12.40;;;12.40;;
81006;SDS011;70472;47.592;17.640;2023-08-24T00:24:41;12.37;;;12.37;;
81006;SDS011;70472;47.592;17.640;2023-08-24T00:25:14;12.83;;;12.83;;
81006;SDS011;70472;47.592;17.640;2023-08-24T00:25:48;12.80;;;12.80;;
81006;SDS011;70472;47.592;17.640;2023-08-24T00:26:20;12.63;;;12.63;;
81006;SDS011;70472;47.592;17.640;2023-08-24T00:26:54;12.57;;;12.57;;
81006;SDS011;70472;47.592;17.640;2023-08-24T00:27:26;13.13;;;13.13;;
81006;SDS011;70472;47.592;17.640;2023-08-24T00:27:59;13.27;;;13.27;;
81006;SDS011;70472;47.592;17.640;2023-08-24T00:28:31;12.93;;;12.93;;
81006;SDS011;70472;47.592;17.640;2023-08-24T00:29:05;12.90;;;12.90;;
81006;SDS011;70472;47.592;17.640;2023-08-24T00:29:37;12.97;;;12.97;;
81006;SDS011;70472;47.592;17.640;2023-08-24T00:30:10;13.33;;;13.33;;
81006;SDS011;70472;47.592;17.640;2023-08-24T00:30:43;13.17;;;13.17;;
81006;SDS011;70472;47.592;17.640;2023-08-24T00:31:15;12.30;;;12.30;;
81006;SDS011;70472;47.592;17.640;2023-08-24T00:31:48;12.70;;;12.70;;
81006;SDS011;70472;47.592;17.640;2023-08-24T00:32:22;13.47;;;13.47;;
81006;SDS011;70472;47.592;17.640;2023-08-24T00:32:55;13.27;;;13.27;;
81006;SDS011;70472;47.592;17.640;2023-08-24T00:33:27;13.20;;;13.20;;
81006;SDS011;70472;47.592;17.640;2023-08-24T00:33:59;13.47;;;13.47;;
81006;SDS011;70472;47.592;17.640;2023-08-24T00:34:32;12.50;;;12.50;;
81006;SDS011;70472;47.592;17.640;2023-08-24T00:35:05;13.60;;;13.60;;
81006;SDS011;70472;47.592;17.640;2023-08-24T00:35:41;12.23;;;12.23;;
81006;SDS011;70472;47.592;17.640;2023-08-24T00:36:13;12.50;;;12.50;;
81006;SDS011;70472;47.592;17.640;2023-08-24T00:36:45;12.93;;;12.93;;
81006;SDS011;70472;47.592;17.640;2023-08-24T00:37:18;12.00;;;12.00;;
81006;SDS011;70472;47.592;17.640;2023-08-24T00:37:50;12.87;;;12.87;;
81006;SDS011;70472;47.592;17.640;2023-08-24T00:38:23;13.97;;;13.97;;
81006;SDS011;70472;47.592;17.640;2023-08-24T00:38:56;13.93;;;13.93;;
81006;SDS011;70472;47.592;17.640;2023-08-24T00:39:28;12.77;;;12.77;;
81006;SDS011;70472;47.592;17.640;2023-08-24T00:40:01;12.63;;;12.63;;
81006;SDS011;70472;47.592;17.640;2023-08-24T00:40:36;13.07;;;13.07;;
81006;SDS011;70472;47.592;17.640;2023-08-24T00:41:10;13.00;;;13.00;;
81006;SDS011;70472;47.592;17.640;2023-08-24T00:41:44;13.43;;;13.43;;
81006;SDS011;70472;47.592;17.640;2023-08-24T00:42:16;13.80;;;13.80;;
81006;SDS011;70472;47.592;17.640;2023-08-24T00:42:49;12.20;;;12.20;;
81006;SDS011;70472;47.592;17.640;2023-08-24T00:43:21;12.53;;;12.53;;
81006;SDS011;70472;47.592;17.640;2023-08-24T00:43:54;12.90;;;12.90;;
81006;SDS011;70472;47.592;17.640;2023-08-24T00:44:26;12.40;;;12.40;;
81006;SDS011;70472;47.592;17.640;2023-08-24T00:44:58;12.63;;;12.63;;
81006;SDS011;70472;47.592;17.640;2023-08-24T00:45:31;12.73;;;12.73;;
81006;SDS011;70472;47.592;17.640;2023-08-24T00:46:04;13.40;;;13.40;;
81006;SDS011;70472;47.592;17.640;2023-08-24T00:46:37;13.80;;;13.80;;
81006;SDS011;70472;47.592;17.640;2023-08-24T00:47:10;12.50;;;12.50;;
81006;SDS011;70472;47.592;17.640;2023-08-24T00:47:43;12.27;;;12.27;;
81006;SDS011;70472;47.592;17.640;2023-08-24T00:48:18;12.30;;;12.30;;
81006;SDS011;70472;47.592;17.640;2023-08-24T00:48:53;13.60;;;13.60;;
81006;SDS011;70472;47.592;17.640;2023-08-24T00:49:26;12.80;;;12.80;;
81006;SDS011;70472;47.592;17.640;2023-08-24T00:49:59;13.03;;;13.03;;
81006;SDS011;70472;47.592;17.640;2023-08-24T00:50:33;12.17;;;12.17;;
81006;SDS011;70472;47.592;17.640;2023-08-24T00:51:05;12.80;;;12.80;;
81006;SDS011;70472;47.592;17.640;2023-08-24T00:51:38;12.83;;;12.83;;
81006;SDS011;70472;47.592;17.640;2023-08-24T00:52:11;12.03;;;12.03;;
81006;SDS011;70472;47.592;17.640;2023-08-24T00:52:44;12.07;;;12.07;;
81006;SDS011;70472;47.592;17.640;2023-08-24T00:53:19;12.37;;;12.37;;
81006;SDS011;70472;47.592;17.640;2023-08-24T00:53:53;12.20;;;12.20;;
81006;SDS011;70472;47.592;17.640;2023-08-24T00:54:26;13.17;;;13.17;;
81006;SDS011;70472;47.592;17.640;2023-08-24T00:54:59;12.83;;;12.83;;
81006;SDS011;70472;47.592;17.640;2023-08-24T00:55:32;13.13;;;13.13;;
81006;SDS011;70472;47.592;17.640;2023-08-24T00:56:05;12.57;;;12.57;;
81006;SDS011;70472;47.592;17.640;2023-08-24T00:56:39;12.57;;;12.57;;
81006;SDS011;70472;47.592;17.640;2023-08-24T00:57:12;12.73;;;12.73;;
81006;SDS011;70472;47.592;17.640;2023-08-24T00:57:45;11.70;;;11.70;;
81006;SDS011;70472;47.592;17.640;2023-08-24T00:58:19;12.10;;;12.10;;
81006;SDS011;70472;47.592;17.640;2023-08-24T00:58:53;12.77;;;12.77;;
81006;SDS011;70472;47.592;17.640;2023-08-24T00:59:26;13.07;;;13.07;;
81006;SDS011;70472;47.592;17.640;2023-08-24T00:59:58;12.53;;;12.53;;
81006;SDS011;70472;47.592;17.640;2023-08-24T01:00:33;12.37;;;12.37;;
81006;SDS011;70472;47.592;17.640;2023-08-24T01:01:06;13.30;;;13.30;;
81006;SDS011;70472;47.592;17.640;2023-08-24T01:01:39;12.67;;;12.67;;
81006;SDS011;70472;47.592;17.640;2023-08-24T01:02:13;13.17;;;13.17;;
81006;SDS011;70472;47.592;17.640;2023-08-24T01:02:46;12.40;;;12.40;;
81006;SDS011;70472;47.592;17.640;2023-08-24T01:03:23;11.77;;;11.77;;
81006;SDS011;70472;47.592;17.640;2023-08-24T01:03:57;11.90;;;11.90;;
81006;SDS011;70472;47.592;17.640;2023-08-24T01:04:29;13.30;;;13.30;;
81006;SDS011;70472;47.592;17.640;2023-08-24T01:05:02;13.57;;;13.57;;
81006;SDS011;70472;47.592;17.640;2023-08-24T01:05:35;12.83;;;12.83;;
81006;SDS011;70472;47.592;17.640;2023-08-24T01:06:07;13.67;;;13.67;;
81006;SDS011;70472;47.592;17.640;2023-08-24T01:06:41;12.97;;;12.97;;
81006;SDS011;70472;47.592;17.640;2023-08-24T01:07:14;13.93;;;13.93;;
81006;SDS011;70472;47.592;17.640;2023-08-24T01:07:49;14.60;;;14.60;;
81006;SDS011;70472;47.592;17.640;2023-08-24T01:08:22;14.10;;;14.10;;
81006;SDS011;70472;47.592;17.640;2023-08-24T01:08:55;13.43;;;13.43;;
81006;SDS011;70472;47.592;17.640;2023-08-24T01:09:30;13.83;;;13.83;;
81006;SDS011;70472;47.592;17.640;2023-08-24T01:10:03;13.30;;;13.30;;
81006;SDS011;70472;47.592;17.640;2023-08-24T01:10:59;12.67;;;12.67;;
81006;SDS011;70472;47.592;17.640;2023-08-24T01:13:17;14.03;;;14.03;;
81006;SDS011;70472;47.592;17.640;2023-08-24T01:14:16;12.53;;;12.53;;
81006;SDS011;70472;47.592;17.640;2023-08-24T01:16:40;12.80;;;12.80;;
81006;SDS011;70472;47.592;17.640;2023-08-24T01:17:18;13.70;;;13.70;;
81006;SDS011;70472;47.592;17.640;2023-08-24T01:17:56;13.20;;;13.20;;
81006;SDS011;70472;47.592;17.640;2023-08-24T01:18:40;12.93;;;12.93;;
81006;SDS011;70472;47.592;17.640;2023-08-24T01:19:22;13.23;;;13.23;;
81006;SDS011;70472;47.592;17.640;2023-08-24T01:20:09;12.90;;;12.90;;
81006;SDS011;70472;47.592;17.640;2023-08-24T01:20:43;12.63;;;12.63;;
81006;SDS011;70472;47.592;17.640;2023-08-24T01:21:16;11.90;;;11.90;;
81006;SDS011;70472;47.592;17.640;2023-08-24T01:21:49;12.97;;;12.97;;
81006;SDS011;70472;47.592;17.640;2023-08-24T01:24:17;11.97;;;11.97;;
81006;SDS011;70472;47.592;17.640;2023-08-24T01:25:17;12.27;;;12.27;;
81006;SDS011;70472;47.592;17.640;2023-08-24T01:26:17;11.70;;;11.70;;
81006;SDS011;70472;47.592;17.640;2023-08-24T01:26:51;12.13;;;12.13;;
81006;SDS011;70472;47.592;17.640;2023-08-24T01:27:27;11.70;;;11.70;;
81006;SDS011;70472;47.592;17.640;2023-08-24T01:28:02;12.87;;;12.87;;
81006;SDS011;70472;47.592;17.640;2023-08-24T01:28:38;12.67;;;12.67;;
81006;SDS011;70472;47.592;17.640;2023-08-24T01:29:11;12.30;;;12.30;;
81006;SDS011;70472;47.592;17.640;2023-08-24T01:29:44;12.50;;;12.50;;
81006;SDS011;70472;47.592;17.640;2023-08-24T01:30:18;12.77;;;12.77;;
81006;SDS011;70472;47.592;17.640;2023-08-24T01:30:50;11.53;;;11.53;;
81006;SDS011;70472;47.592;17.640;2023-08-24T01:31:24;12.00;;;12.00;;
81006;SDS011;70472;47.592;17.640;2023-08-24T01:31:57;12.37;;;12.37;;
81006;SDS011;70472;47.592;17.640;2023-08-24T01:32:32;13.03;;;13.03;;
81006;SDS011;70472;47.592;17.640;2023-08-24T01:33:06;12.33;;;12.33;;
81006;SDS011;70472;47.592;17.640;2023-08-24T01:33:39;12.87;;;12.87;;
81006;SDS011;70472;47.592;17.640;2023-08-24T01:34:12;12.43;;;12.43;;
81006;SDS011;70472;47.592;17.640;2023-08-24T01:34:44;12.40;;;12.40;;
81006;SDS011;70472;47.592;17.640;2023-08-24T01:35:17;11.73;;;11.73;;
81006;SDS011;70472;47.592;17.640;2023-08-24T01:35:49;12.70;;;12.70;;
81006;SDS011;70472;47.592;17.640;2023-08-24T01:36:22;13.23;;;13.23;;
81006;SDS011;70472;47.592;17.640;2023-08-24T01:36:55;12.97;;;12.97;;
81006;SDS011;70472;47.592;17.640;2023-08-24T01:37:28;12.47;;;12.47;;
81006;SDS011;70472;47.592;17.640;2023-08-24T01:38:00;12.27;;;12.27;;
81006;SDS011;70472;47.592;17.640;2023-08-24T01:38:33;12.20;;;12.20;;
81006;SDS011;70472;47.592;17.640;2023-08-24T01:39:28;12.60;;;12.60;;
81006;SDS011;70472;47.592;17.640;2023-08-24T01:41:40;11.33;;;11.33;;
81006;SDS011;70472;47.592;17.640;2023-08-24T01:42:21;12.10;;;12.10;;
81006;SDS011;70472;47.592;17.640;2023-08-24T01:43:04;12.07;;;12.07;;
81006;SDS011;70472;47.592;17.640;2023-08-24T01:43:42;12.03;;;12.03;;
81006;SDS011;70472;47.592;17.640;2023-08-24T01:44:21;12.10;;;12.10;;
81006;SDS011;70472;47.592;17.640;2023-08-24T01:44:56;12.07;;;12.07;;
81006;SDS011;70472;47.592;17.640;2023-08-24T01:45:34;12.03;;;12.03;;
81006;SDS011;70472;47.592;17.640;2023-08-24T01:46:07;12.20;;;12.20;;
81006;SDS011;70472;47.592;17.640;2023-08-24T01:46:40;11.67;;;11.67;;
81006;SDS011;70472;47.592;17.640;2023-08-24T01:47:15;11.57;;;11.57;;
81006;SDS011;70472;47.592;17.640;2023-08-24T01:47:51;11.80;;;11.80;;
81006;SDS011;70472;47.592;17.640;2023-08-24T01:48:26;11.93;;;11.93;;
81006;SDS011;70472;47.592;17.640;2023-08-24T01:48:59;12.83;;;12.83;;
81006;SDS011;70472;47.592;17.640;2023-08-24T01:49:32;12.17;;;12.17;;
81006;SDS011;70472;47.592;17.640;2023-08-24T01:50:06;11.83;;;11.83;;
81006;SDS011;70472;47.592;17.640;2023-08-24T01:50:40;12.27;;;12.27;;
81006;SDS011;70472;47.592;17.640;2023-08-24T01:51:15;12.10;;;12.10;;
81006;SDS011;70472;47.592;17.640;2023-08-24T01:51:48;12.30;;;12.30;;
81006;SDS011;70472;47.592;17.640;2023-08-24T01:52:21;12.93;;;12.93;;
81006;SDS011;70472;47.592;17.640;2023-08-24T01:52:56;12.80;;;12.80;;
81006;SDS011;70472;47.592;17.640;2023-08-24T01:53:30;12.90;;;12.90;;
81006;SDS011;70472;47.592;17.640;2023-08-24T01:54:03;12.17;;;12.17;;
81006;SDS011;70472;47.592;17.640;2023-08-24T01:54:36;11.67;;;11.67;;
81006;SDS011;70472;47.592;17.640;2023-08-24T01:55:09;11.83;;;11.83;;
81006;SDS011;70472;47.592;17.640;2023-08-24T01:55:44;12.07;;;12.07;;
81006;SDS011;70472;47.592;17.640;2023-08-24T01:56:18;11.87;;;11.87;;
81006;SDS011;70472;47.592;17.640;2023-08-24T01:56:50;12.60;;;12.60;;
81006;SDS011;70472;47.592;17.640;2023-08-24T01:57:23;11.67;;;11.67;;
81006;SDS011;70472;47.592;17.640;2023-08-24T01:57:55;11.63;;;11.63;;
81006;SDS011;70472;47.592;17.640;2023-08-24T01:58:28;12.20;;;12.20;;
81006;SDS011;70472;47.592;17.640;2023-08-24T01:59:00;11.43;;;11.43;;
81006;SDS011;70472;47.592;17.640;2023-08-24T01:59:33;11.73;;;11.73;;
81006;SDS011;70472;47.592;17.640;2023-08-24T02:00:05;12.90;;;12.90;;
81006;SDS011;70472;47.592;17.640;2023-08-24T02:00:44;11.83;;;11.83;;
81006;SDS011;70472;47.592;17.640;2023-08-24T02:01:16;11.93;;;11.93;;
81006;SDS011;70472;47.592;17.640;2023-08-24T02:01:48;12.40;;;12.40;;
81006;SDS011;70472;47.592;17.640;2023-08-24T02:02:21;12.80;;;12.80;;
81006;SDS011;70472;47.592;17.640;2023-08-24T02:02:55;11.93;;;11.93;;
81006;SDS011;70472;47.592;17.640;2023-08-24T02:03:29;12.47;;;12.47;;
81006;SDS011;70472;47.592;17.640;2023-08-24T02:04:01;11.53;;;11.53;;
81006;SDS011;70472;47.592;17.640;2023-08-24T02:04:34;11.53;;;11.53;;
81006;SDS011;70472;47.592;17.640;2023-08-24T02:05:06;12.03;;;12.03;;
81006;SDS011;70472;47.592;17.640;2023-08-24T02:05:39;12.73;;;12.73;;
81006;SDS011;70472;47.592;17.640;2023-08-24T02:06:11;11.53;;;11.53;;
81006;SDS011;70472;47.592;17.640;2023-08-24T02:06:44;11.53;;;11.53;;
81006;SDS011;70472;47.592;17.640;2023-08-24T02:07:16;11.83;;;11.83;;
81006;SDS011;70472;47.592;17.640;2023-08-24T02:07:49;11.80;;;11.80;;
81006;SDS011;70472;47.592;17.640;2023-08-24T02:08:21;12.23;;;12.23;;
81006;SDS011;70472;47.592;17.640;2023-08-24T02:08:55;12.17;;;12.17;;
81006;SDS011;70472;47.592;17.640;2023-08-24T02:09:27;12.43;;;12.43;;
81006;SDS011;70472;47.592;17.640;2023-08-24T02:10:00;11.70;;;11.70;;
81006;SDS011;70472;47.592;17.640;2023-08-24T02:10:33;11.03;;;11.03;;
81006;SDS011;70472;47.592;17.640;2023-08-24T02:11:05;11.80;;;11.80;;
81006;SDS011;70472;47.592;17.640;2023-08-24T02:11:39;12.37;;;12.37;;
81006;SDS011;70472;47.592;17.640;2023-08-24T02:12:11;12.43;;;12.43;;
81006;SDS011;70472;47.592;17.640;2023-08-24T02:12:44;11.43;;;11.43;;
81006;SDS011;70472;47.592;17.640;2023-08-24T02:13:16;12.10;;;12.10;;
81006;SDS011;70472;47.592;17.640;2023-08-24T02:13:49;12.07;;;12.07;;
81006;SDS011;70472;47.592;17.640;2023-08-24T02:14:21;11.93;;;11.93;;
81006;SDS011;70472;47.592;17.640;2023-08-24T02:14:54;12.37;;;12.37;;
81006;SDS011;70472;47.592;17.640;2023-08-24T02:15:26;11.67;;;11.67;;
81006;SDS011;70472;47.592;17.640;2023-08-24T02:16:02;11.47;;;11.47;;
81006;SDS011;70472;47.592;17.640;2023-08-24T02:16:36;11.57;;;11.57;;
81006;SDS011;70472;47.592;17.640;2023-08-24T02:17:10;11.47;;;11.47;;
81006;SDS011;70472;47.592;17.640;2023-08-24T02:17:42;11.07;;;11.07;;
81006;SDS011;70472;47.592;17.640;2023-08-24T02:18:15;11.20;;;11.20;;
81006;SDS011;70472;47.592;17.640;2023-08-24T02:18:47;11.27;;;11.27;;
81006;SDS011;70472;47.592;17.640;2023-08-24T02:19:20;12.33;;;12.33;;
81006;SDS011;70472;47.592;17.640;2023-08-24T02:19:52;11.93;;;11.93;;
81006;SDS011;70472;47.592;17.640;2023-08-24T02:20:25;12.10;;;12.10;;
81006;SDS011;70472;47.592;17.640;2023-08-24T02:20:57;11.73;;;11.73;;
81006;SDS011;70472;47.592;17.640;2023-08-24T02:21:30;11.73;;;11.73;;
81006;SDS011;70472;47.592;17.640;2023-08-24T02:22:03;12.33;;;12.33;;
81006;SDS011;70472;47.592;17.640;2023-08-24T02:22:36;12.33;;;12.33;;
81006;SDS011;70472;47.592;17.640;2023-08-24T02:23:09;12.53;;;12.53;;
81006;SDS011;70472;47.592;17.640;2023-08-24T02:23:41;12.70;;;12.70;;
81006;SDS011;70472;47.592;17.640;2023-08-24T02:24:14;12.03;;;12.03;;
81006;SDS011;70472;47.592;17.640;2023-08-24T02:24:46;11.97;;;11.97;;
81006;SDS011;70472;47.592;17.640;2023-08-24T02:25:18;12.00;;;12.00;;
81006;SDS011;70472;47.592;17.640;2023-08-24T02:25:51;12.03;;;12.03;;
81006;SDS011;70472;47.592;17.640;2023-08-24T02:26:23;11.83;;;11.83;;
81006;SDS011;70472;47.592;17.640;2023-08-24T02:26:56;11.90;;;11.90;;
81006;SDS011;70472;47.592;17.640;2023-08-24T02:27:28;11.33;;;11.33;;
81006;SDS011;70472;47.592;17.640;2023-08-24T02:28:01;11.40;;;11.40;;
81006;SDS011;70472;47.592;17.640;2023-08-24T02:28:35;11.73;;;11.73;;
81006;SDS011;70472;47.592;17.640;2023-08-24T02:29:09;11.90;;;11.90;;
81006;SDS011;70472;47.592;17.640;2023-08-24T02:29:41;12.13;;;12.13;;
81006;SDS011;70472;47.592;17.640;2023-08-24T02:30:14;11.70;;;11.70;;
81006;SDS011;70472;47.592;17.640;2023-08-24T02:30:46;11.57;;;11.57;;
81006;SDS011;70472;47.592;17.640;2023-08-24T02:31:21;12.07;;;12.07;;
81006;SDS011;70472;47.592;17.640;2023-08-24T02:31:54;12.20;;;12.20;;
81006;SDS011;70472;47.592;17.640;2023-08-24T02:32:26;12.17;;;12.17;;
81006;SDS011;70472;47.592;17.640;2023-08-24T02:32:59;11.63;;;11.63;;
81006;SDS011;70472;47.592;17.640;2023-08-24T02:33:32;12.37;;;12.37;;
81006;SDS011;70472;47.592;17.640;2023-08-24T02:34:05;12.10;;;12.10;;
81006;SDS011;70472;47.592;17.640;2023-08-24T02:34:38;11.97;;;11.97;;
81006;SDS011;70472;47.592;17.640;2023-08-24T02:35:12;12.33;;;12.33;;
81006;SDS011;70472;47.592;17.640;2023-08-24T02:35:49;12.50;;;12.50;;
81006;SDS011;70472;47.592;17.640;2023-08-24T02:36:21;12.27;;;12.27;;
81006;SDS011;70472;47.592;17.640;2023-08-24T02:36:54;12.30;;;12.30;;
81006;SDS011;70472;47.592;17.640;2023-08-24T02:37:26;11.67;;;11.67;;
81006;SDS011;70472;47.592;17.640;2023-08-24T02:37:59;12.00;;;12.00;;
81006;SDS011;70472;47.592;17.640;2023-08-24T02:38:32;11.80;;;11.80;;
81006;SDS011;70472;47.592;17.640;2023-08-24T02:39:04;11.40;;;11.40;;
81006;SDS011;70472;47.592;17.640;2023-08-24T02:39:36;11.77;;;11.77;;
81006;SDS011;70472;47.592;17.640;2023-08-24T02:40:09;12.00;;;12.00;;
81006;SDS011;70472;47.592;17.640;2023-08-24T02:40:42;11.70;;;11.70;;
81006;SDS011;70472;47.592;17.640;2023-08-24T02:41:14;11.50;;;11.50;;
81006;SDS011;70472;47.592;17.640;2023-08-24T02:41:47;12.57;;;12.57;;
81006;SDS011;70472;47.592;17.640;2023-08-24T02:42:19;11.33;;;11.33;;
81006;SDS011;70472;47.592;17.640;2023-08-24T02:42:52;11.97;;;11.97;;
81006;SDS011;70472;47.592;17.640;2023-08-24T02:43:24;12.33;;;12.33;;
81006;SDS011;70472;47.592;17.640;2023-08-24T02:43:56;12.43;;;12.43;;
81006;SDS011;70472;47.592;17.640;2023-08-24T02:44:29;12.17;;;12.17;;
81006;SDS011;70472;47.592;17.640;2023-08-24T02:45:01;12.20;;;12.20;;
81006;SDS011;70472;47.592;17.640;2023-08-24T02:45:34;12.23;;;12.23;;
81006;SDS011;70472;47.592;17.640;2023-08-24T02:46:07;12.73;;;12.73;;
81006;SDS011;70472;47.592;17.640;2023-08-24T02:46:43;12.20;;;12.20;;
81006;SDS011;70472;47.592;17.640;2023-08-24T02:47:16;12.43;;;12.43;;
81006;SDS011;70472;47.592;17.640;2023-08-24T02:47:48;12.10;;;12.10;;
81006;SDS011;70472;47.592;17.640;2023-08-24T02:48:21;11.33;;;11.33;;
81006;SDS011;70472;47.592;17.640;2023-08-24T02:48:53;11.60;;;11.60;;
81006;SDS011;70472;47.592;17.640;2023-08-24T02:49:26;12.03;;;12.03;;
81006;SDS011;70472;47.592;17.640;2023-08-24T02:49:58;12.23;;;12.23;;
81006;SDS011;70472;47.592;17.640;2023-08-24T02:50:31;11.70;;;11.70;;
81006;SDS011;70472;47.592;17.640;2023-08-24T02:51:03;11.90;;;11.90;;
81006;SDS011;70472;47.592;17.640;2023-08-24T02:51:37;11.83;;;11.83;;
81006;SDS011;70472;47.592;17.640;2023-08-24T02:52:09;11.50;;;11.50;;
81006;SDS011;70472;47.592;17.640;2023-08-24T02:52:41;12.57;;;12.57;;
81006;SDS011;70472;47.592;17.640;2023-08-24T02:53:14;12.47;;;12.47;;
81006;SDS011;70472;47.592;17.640;2023-08-24T02:53:46;11.97;;;11.97;;
81006;SDS011;70472;47.592;17.640;2023-08-24T02:54:19;12.43;;;12.43;;
81006;SDS011;70472;47.592;17.640;2023-08-24T02:54:53;12.80;;;12.80;;
81006;SDS011;70472;47.592;17.640;2023-08-24T02:55:26;13.70;;;13.70;;
81006;SDS011;70472;47.592;17.640;2023-08-24T02:55:59;12.90;;;12.90;;
81006;SDS011;70472;47.592;17.640;2023-08-24T02:56:32;13.20;;;13.20;;
81006;SDS011;70472;47.592;17.640;2023-08-24T02:57:04;13.07;;;13.07;;
81006;SDS011;70472;47.592;17.640;2023-08-24T02:57:38;12.67;;;12.67;;
81006;SDS011;70472;47.592;17.640;2023-08-24T02:58:10;12.90;;;12.90;;
81006;SDS011;70472;47.592;17.640;2023-08-24T02:58:43;12.77;;;12.77;;
81006;SDS011;70472;47.592;17.640;2023-08-24T02:59:16;12.37;;;12.37;;
81006;SDS011;70472;47.592;17.640;2023-08-24T02:59:51;12.90;;;12.90;;
81006;SDS011;70472;47.592;17.640;2023-08-24T03:00:24;13.23;;;13.23;;
81006;SDS011;70472;47.592;17.640;2023-08-24T03:00:56;12.97;;;12.97;;
81006;SDS011;70472;47.592;17.640;2023-08-24T03:01:29;12.63;;;12.63;;
81006;SDS011;70472;47.592;17.640;2023-08-24T03:02:04;12.67;;;12.67;;
81006;SDS011;70472;47.592;17.640;2023-08-24T03:02:37;12.40;;;12.40;;
81006;SDS011;70472;47.592;17.640;2023-08-24T03:03:09;12.47;;;12.47;;
81006;SDS011;70472;47.592;17.640;2023-08-24T03:03:42;12.97;;;12.97;;
81006;SDS011;70472;47.592;17.640;2023-08-24T03:04:15;13.13;;;13.13;;
81006;SDS011;70472;47.592;17.640;2023-08-24T03:04:48;13.30;;;13.30;;
81006;SDS011;70472;47.592;17.640;2023-08-24T03:05:21;11.83;;;11.83;;
81006;SDS011;70472;47.592;17.640;2023-08-24T03:05:54;12.27;;;12.27;;
81006;SDS011;70472;47.592;17.640;2023-08-24T03:06:32;12.70;;;12.70;;
81006;SDS011;70472;47.592;17.640;2023-08-24T03:07:05;12.17;;;12.17;;
81006;SDS011;70472;47.592;17.640;2023-08-24T03:07:38;12.50;;;12.50;;
81006;SDS011;70472;47.592;17.640;2023-08-24T03:08:11;12.87;;;12.87;;
81006;SDS011;70472;47.592;17.640;2023-08-24T03:08:43;12.07;;;12.07;;
81006;SDS011;70472;47.592;17.640;2023-08-24T03:09:16;11.87;;;11.87;;
81006;SDS011;70472;47.592;17.640;2023-08-24T03:09:48;12.30;;;12.30;;
81006;SDS011;70472;47.592;17.640;2023-08-24T03:10:21;13.00;;;13.00;;
81006;SDS011;70472;47.592;17.640;2023-08-24T03:10:54;11.93;;;11.93;;
81006;SDS011;70472;47.592;17.640;2023-08-24T03:11:26;11.50;;;11.50;;
81006;SDS011;70472;47.592;17.640;2023-08-24T03:11:59;12.80;;;12.80;;
81006;SDS011;70472;47.592;17.640;2023-08-24T03:12:31;12.43;;;12.43;;
81006;SDS011;70472;47.592;17.640;2023-08-24T03:13:04;13.00;;;13.00;;
81006;SDS011;70472;47.592;17.640;2023-08-24T03:13:37;13.23;;;13.23;;
81006;SDS011;70472;47.592;17.640;2023-08-24T03:14:10;12.27;;;12.27;;
81006;SDS011;70472;47.592;17.640;2023-08-24T03:14:42;12.53;;;12.53;;
81006;SDS011;70472;47.592;17.640;2023-08-24T03:15:16;12.10;;;12.10;;
81006;SDS011;70472;47.592;17.640;2023-08-24T03:15:49;13.30;;;13.30;;
81006;SDS011;70472;47.592;17.640;2023-08-24T03:16:21;12.57;;;12.57;;
81006;SDS011;70472;47.592;17.640;2023-08-24T03:16:54;12.07;;;12.07;;
81006;SDS011;70472;47.592;17.640;2023-08-24T03:17:26;12.50;;;12.50;;
81006;SDS011;70472;47.592;17.640;2023-08-24T03:17:59;13.00;;;13.00;;
81006;SDS011;70472;47.592;17.640;2023-08-24T03:18:31;13.27;;;13.27;;
81006;SDS011;70472;47.592;17.640;2023-08-24T03:19:07;13.30;;;13.30;;
81006;SDS011;70472;47.592;17.640;2023-08-24T03:19:39;12.90;;;12.90;;
81006;SDS011;70472;47.592;17.640;2023-08-24T03:20:11;13.43;;;13.43;;
81006;SDS011;70472;47.592;17.640;2023-08-24T03:20:45;12.43;;;12.43;;